Time;durP1;ratioP1;P1;durP2;ratioP2;P2;SDS_P1;SDS_P2;PMS_P1;PMS_P2;Temp;Humidity;BMP_temperature;BMP_pressure;BME280_temperature;BME280_humidity;BME280_pressure;Samples;Min_cycle;Max_cycle;Signal;HPM_P1;HPM_P2
2023/06/11 00:01:18;;;;;;;10.73;9.73;;;22.30;36.20;;;;;;5072531;28;20418;-57
2023/06/11 00:03:52;;;;;;;11.17;9.73;;;22.20;36.40;;;;;;5072573;28;20403;-55
2023/06/11 00:06:20;;;;;;;9.60;8.70;;;22.20;36.10;;;;;;5072463;28;20414;-54
2023/06/11 00:08:51;;;;;;;9.43;8.40;;;22.10;36.50;;;;;;5072386;28;20477;-54
2023/06/11 00:11:17;;;;;;;8.93;8.03;;;22.00;36.40;;;;;;5072273;28;20926;-56
2023/06/11 00:13:43;;;;;;;10.33;8.60;;;21.90;36.30;;;;;;5072344;28;20430;-55
2023/06/11 00:16:11;;;;;;;8.90;7.77;;;21.90;35.90;;;;;;5072340;28;20503;-54
2023/06/11 00:18:40;;;;;;;8.83;7.93;;;21.80;36.00;;;;;;5072507;28;20469;-56
2023/06/11 00:21:10;;;;;;;9.43;8.43;;;21.70;36.00;;;;;;5072101;28;20922;-55
2023/06/11 00:23:36;;;;;;;10.70;8.20;;;21.70;36.30;;;;;;5072261;28;20417;-55
2023/06/11 00:26:06;;;;;;;10.20;7.80;;;21.70;36.80;;;;;;5072174;28;20407;-58
2023/06/11 00:28:32;;;;;;;13.73;8.50;;;21.60;37.10;;;;;;5072140;28;20468;-58
2023/06/11 00:31:00;;;;;;;10.63;7.60;;;21.60;37.00;;;;;;5071138;28;20998;-55
2023/06/11 00:33:26;;;;;;;8.90;7.53;;;21.50;37.40;;;;;;5072294;28;20433;-58
2023/06/11 00:35:52;;;;;;;10.60;8.90;;;21.50;36.80;;;;;;5072389;28;20873;-54
2023/06/11 00:38:19;;;;;;;9.20;8.30;;;21.40;36.50;;;;;;5071965;28;20505;-58
2023/06/11 00:40:46;;;;;;;13.43;8.80;;;21.40;36.90;;;;;;5072063;28;20176;-57
2023/06/11 00:43:11;;;;;;;17.90;10.30;;;21.30;36.80;;;;;;5071963;28;20412;-55
2023/06/11 00:45:37;;;;;;;10.40;8.10;;;21.20;36.80;;;;;;5070916;28;20770;-57
2023/06/11 00:48:03;;;;;;;10.77;6.97;;;21.20;37.00;;;;;;5071993;28;20591;-55
2023/06/11 00:50:29;;;;;;;10.17;8.53;;;21.10;37.50;;;;;;5072003;28;20648;-55
2023/06/11 00:52:55;;;;;;;9.17;8.17;;;21.10;37.30;;;;;;5072038;28;20403;-55
2023/06/11 00:55:21;;;;;;;10.00;7.70;;;21.10;37.40;;;;;;5071858;28;20450;-58
2023/06/11 00:57:48;;;;;;;10.13;7.83;;;21.00;37.60;;;;;;5071946;28;20189;-55
2023/06/11 01:00:14;;;;;;;9.85;8.45;;;21.00;37.40;;;;;;5072023;28;20462;-56
2023/06/11 01:02:59;;;;;;;7.50;6.65;;;21.00;37.50;;;;;;5072164;28;20749;-58
2023/06/11 01:05:26;;;;;;;8.57;7.32;;;20.90;38.30;;;;;;5072040;28;20207;-56
2023/06/11 01:07:55;;;;;;;7.55;6.88;;;20.90;38.20;;;;;;5071780;28;20699;-58
2023/06/11 01:10:22;;;;;;;11.47;8.30;;;20.80;38.00;;;;;;5071600;28;20663;-57
2023/06/11 01:12:48;;;;;;;13.85;9.75;;;20.80;37.50;;;;;;5071629;28;20919;-55
2023/06/11 01:15:15;;;;;;;10.60;8.07;;;20.60;37.60;;;;;;5071877;28;20259;-55
2023/06/11 01:17:54;;;;;;;10.77;9.60;;;20.50;37.70;;;;;;5070477;28;20517;-58
2023/06/11 01:20:34;;;;;;;9.05;8.15;;;20.50;37.70;;;;;;5071793;28;20176;-57
2023/06/11 01:23:34;;;;;;;11.63;9.00;;;20.50;37.90;;;;;;5072045;28;20157;-55
2023/06/11 01:26:12;;;;;;;10.85;7.88;;;20.50;37.20;;;;;;5071897;28;20173;-55
2023/06/11 01:28:39;;;;;;;8.82;7.93;;;20.50;37.50;;;;;;5071648;28;20196;-58
2023/06/11 01:31:11;;;;;;;9.43;8.10;;;20.40;37.80;;;;;;5071723;28;20241;-57
2023/06/11 01:33:37;;;;;;;8.95;8.10;;;20.40;37.30;;;;;;5070370;28;20177;-57
2023/06/11 01:36:05;;;;;;;9.33;6.93;;;20.40;37.80;;;;;;5071723;28;20261;-55
2023/06/11 01:38:34;;;;;;;11.13;8.40;;;20.40;37.60;;;;;;5071603;28;20219;-55
2023/06/11 01:41:01;;;;;;;13.45;8.55;;;20.40;37.60;;;;;;5072319;28;20202;-58
2023/06/11 01:43:28;;;;;;;8.32;6.90;;;20.30;37.10;;;;;;5075118;28;20746;-56
2023/06/11 01:45:55;;;;;;;8.53;7.60;;;20.20;37.10;;;;;;5075155;28;20758;-58
2023/06/11 01:48:21;;;;;;;9.02;8.13;;;20.20;37.90;;;;;;5075406;28;20442;-58
2023/06/11 01:50:47;;;;;;;11.35;8.02;;;20.20;37.50;;;;;;5068293;28;20192;-56
2023/06/11 01:53:13;;;;;;;8.47;6.80;;;20.10;37.10;;;;;;5053989;28;20173;-56
2023/06/11 01:55:39;;;;;;;9.07;7.47;;;20.10;36.60;;;;;;5054927;28;20490;-58
2023/06/11 01:58:05;;;;;;;7.85;7.05;;;20.10;36.90;;;;;;5054880;28;20190;-56
2023/06/11 02:00:31;;;;;;;7.70;6.90;;;20.10;37.60;;;;;;5055074;28;20181;-56
2023/06/11 02:02:59;;;;;;;10.20;7.60;;;20.10;37.30;;;;;;5054842;28;20439;-58
2023/06/11 02:05:25;;;;;;;7.45;6.65;;;20.00;36.80;;;;;;5055029;28;20223;-57
2023/06/11 02:07:51;;;;;;;11.37;7.00;;;20.00;36.80;;;;;;5055065;28;20197;-56
2023/06/11 02:10:16;;;;;;;10.50;6.70;;;19.90;37.20;;;;;;5054704;28;20261;-58
2023/06/11 02:12:42;;;;;;;18.10;7.17;;;19.90;37.20;;;;;;5054525;28;20196;-55
2023/06/11 02:15:08;;;;;;;8.80;6.37;;;19.90;38.00;;;;;;5054721;28;20178;-58
2023/06/11 02:17:34;;;;;;;6.80;6.20;;;19.90;37.70;;;;;;5054735;28;20220;-55
2023/06/11 02:20:00;;;;;;;6.90;5.80;;;19.90;37.80;;;;;;5054581;28;20825;-59
2023/06/11 02:22:26;;;;;;;7.23;5.90;;;19.90;37.90;;;;;;5054829;28;20541;-58
2023/06/11 02:24:51;;;;;;;8.50;6.03;;;19.80;38.00;;;;;;5054634;28;20649;-56
2023/06/11 02:27:17;;;;;;;7.03;5.70;;;19.80;37.50;;;;;;5054413;28;20673;-56
2023/06/11 02:29:43;;;;;;;9.47;6.47;;;19.80;37.80;;;;;;5054323;28;20177;-58
2023/06/11 02:32:10;;;;;;;10.73;6.83;;;19.80;38.10;;;;;;5054615;28;20707;-56
2023/06/11 02:34:35;;;;;;;6.22;5.63;;;19.80;37.80;;;;;;5054528;28;20177;-55
2023/06/11 02:37:01;;;;;;;6.70;6.03;;;19.80;37.60;;;;;;5054207;28;20224;-57
2023/06/11 02:39:27;;;;;;;7.10;5.53;;;19.70;37.40;;;;;;5066692;28;20634;-56
2023/06/11 02:41:53;;;;;;;7.30;5.50;;;19.70;37.50;;;;;;5074294;28;20572;-56
2023/06/11 02:44:18;;;;;;;6.73;5.87;;;19.60;37.80;;;;;;5074231;28;20164;-58
2023/06/11 02:46:44;;;;;;;8.50;7.47;;;19.60;38.40;;;;;;5074384;28;20222;-53
2023/06/11 02:49:10;;;;;;;8.77;6.37;;;19.60;38.30;;;;;;5074162;28;20260;-55
2023/06/11 02:51:35;;;;;;;8.17;6.13;;;19.60;38.00;;;;;;5066682;28;20528;-55
2023/06/11 02:54:02;;;;;;;10.67;5.50;;;19.50;38.30;;;;;;5072892;28;20533;-54
2023/06/11 02:56:28;;;;;;;11.70;6.20;;;19.50;38.60;;;;;;5073730;28;20687;-54
2023/06/11 02:58:54;;;;;;;7.77;7.00;;;19.50;38.50;;;;;;5073961;28;20224;-56
2023/06/11 03:01:19;;;;;;;9.17;5.50;;;19.50;38.60;;;;;;5073516;28;20173;-54
2023/06/11 03:03:45;;;;;;;9.10;6.30;;;19.50;39.00;;;;;;5073856;28;20164;-53
2023/06/11 03:06:11;;;;;;;9.87;6.10;;;19.50;39.30;;;;;;5073812;28;20268;-56
2023/06/11 03:08:37;;;;;;;9.73;6.10;;;19.40;38.80;;;;;;5074081;28;20207;-56
2023/06/11 03:11:03;;;;;;;9.00;6.77;;;19.30;38.30;;;;;;5066378;28;20181;-54
2023/06/11 03:13:28;;;;;;;8.00;5.90;;;19.20;38.30;;;;;;5072199;28;20259;-55
2023/06/11 03:15:55;;;;;;;6.97;5.53;;;19.20;38.60;;;;;;5073470;28;20200;-56
2023/06/11 03:18:21;;;;;;;7.63;6.40;;;19.30;38.80;;;;;;5073486;28;20185;-55
2023/06/11 03:20:46;;;;;;;9.70;6.37;;;19.30;38.90;;;;;;5073306;28;20191;-54
2023/06/11 03:23:14;;;;;;;6.57;5.87;;;19.40;39.00;;;;;;5073462;28;20177;-56
2023/06/11 03:25:41;;;;;;;8.07;6.30;;;19.30;38.90;;;;;;5073200;28;20177;-56
2023/06/11 03:28:07;;;;;;;7.00;6.30;;;19.30;38.90;;;;;;5065601;28;20616;-54
2023/06/11 03:30:32;;;;;;;9.67;6.00;;;19.30;38.90;;;;;;5072942;28;20169;-55
2023/06/11 03:32:58;;;;;;;6.43;5.00;;;19.30;39.20;;;;;;5073178;28;20187;-56
2023/06/11 03:35:24;;;;;;;5.87;5.10;;;19.20;38.40;;;;;;5073080;28;20180;-53
2023/06/11 03:37:50;;;;;;;8.87;5.87;;;19.20;37.80;;;;;;5073076;28;20315;-55
2023/06/11 03:40:15;;;;;;;6.87;5.77;;;19.10;38.10;;;;;;5072640;28;20164;-57
2023/06/11 03:42:41;;;;;;;9.50;6.57;;;19.10;39.30;;;;;;5073049;28;20168;-54
2023/06/11 03:45:07;;;;;;;7.53;5.33;;;19.20;38.80;;;;;;5073077;28;20602;-54
2023/06/11 03:47:33;;;;;;;7.32;5.60;;;19.30;39.00;;;;;;5072748;28;20188;-55
2023/06/11 03:49:59;;;;;;;6.37;5.73;;;19.40;39.00;;;;;;5072635;28;20176;-55
2023/06/11 03:52:25;;;;;;;7.80;5.87;;;19.40;39.20;;;;;;5072822;28;20208;-55
2023/06/11 03:54:50;;;;;;;5.97;5.37;;;19.40;39.30;;;;;;5072532;28;20219;-57
2023/06/11 03:57:18;;;;;;;5.83;5.23;;;19.40;39.30;;;;;;5072809;28;20225;-54
2023/06/11 03:59:44;;;;;;;6.50;5.82;;;19.50;39.50;;;;;;5072495;28;20256;-56
2023/06/11 04:02:10;;;;;;;8.13;5.18;;;19.60;39.60;;;;;;5072528;28;20184;-54
2023/06/11 04:04:36;;;;;;;6.00;5.43;;;19.60;39.50;;;;;;5071094;28;20173;-54
2023/06/11 04:07:02;;;;;;;7.32;5.25;;;19.70;39.70;;;;;;5072462;28;20196;-56
2023/06/11 04:09:28;;;;;;;8.07;6.07;;;19.70;39.60;;;;;;5072141;28;20541;-55
2023/06/11 04:11:54;;;;;;;6.90;5.13;;;19.80;39.60;;;;;;5069450;28;20680;-54
2023/06/11 04:14:20;;;;;;;7.43;5.00;;;19.90;39.70;;;;;;5072322;28;20696;-55
2023/06/11 04:16:46;;;;;;;7.53;5.60;;;19.90;39.50;;;;;;5072254;28;20527;-57
2023/06/11 04:19:12;;;;;;;7.07;5.70;;;20.00;39.50;;;;;;5072185;28;20660;-54
2023/06/11 04:21:38;;;;;;;6.90;5.60;;;20.00;39.20;;;;;;5072428;28;20192;-58
2023/06/11 04:24:04;;;;;;;5.73;4.90;;;20.10;39.10;;;;;;5072275;28;20464;-53
2023/06/11 04:26:31;;;;;;;8.23;6.10;;;20.20;39.30;;;;;;5072274;28;20568;-57
2023/06/11 04:28:57;;;;;;;8.85;6.18;;;20.30;39.20;;;;;;5072265;28;20205;-56
2023/06/11 04:31:27;;;;;;;6.45;5.35;;;20.30;39.00;;;;;;5072184;28;20184;-55
2023/06/11 04:33:56;;;;;;;11.95;6.55;;;20.30;38.40;;;;;;5072262;28;20185;-57
2023/06/11 04:36:27;;;;;;;7.45;6.65;;;20.50;38.60;;;;;;5072036;28;20199;-55
2023/06/11 04:38:53;;;;;;;9.55;6.75;;;20.60;37.30;;;;;;5063562;28;20707;-55
2023/06/11 04:41:23;;;;;;;7.77;5.90;;;20.60;36.60;;;;;;5071903;28;20180;-56
2023/06/11 04:43:49;;;;;;;6.25;5.28;;;20.70;35.80;;;;;;5072131;28;20431;-55
2023/06/11 04:46:15;;;;;;;7.47;6.07;;;20.80;35.70;;;;;;5072113;28;20168;-54
2023/06/11 04:48:41;;;;;;;6.65;5.95;;;20.80;36.30;;;;;;5072024;28;20196;-56
2023/06/11 04:51:07;;;;;;;8.37;6.50;;;21.00;36.40;;;;;;5071664;28;20203;-55
2023/06/11 04:53:36;;;;;;;8.15;6.20;;;21.00;36.00;;;;;;5071937;28;20430;-53
2023/06/11 04:56:03;;;;;;;9.30;5.95;;;21.10;35.70;;;;;;5072024;28;20670;-54
2023/06/11 04:58:30;;;;;;;10.98;6.47;;;21.20;35.10;;;;;;5071933;28;20556;-57
2023/06/11 05:00:57;;;;;;;14.27;7.10;;;21.20;34.80;;;;;;5063792;28;20215;-54
2023/06/11 05:03:27;;;;;;;7.88;6.00;;;21.20;35.60;;;;;;5071792;28;20268;-57
2023/06/11 05:05:54;;;;;;;9.88;7.40;;;21.40;35.40;;;;;;5071993;28;20181;-55
2023/06/11 05:08:25;;;;;;;10.20;7.50;;;21.40;35.50;;;;;;5063589;28;20709;-54
2023/06/11 05:10:57;;;;;;;6.80;6.10;;;21.50;35.40;;;;;;5071698;28;20590;-54
2023/06/11 05:13:26;;;;;;;7.03;6.25;;;21.60;35.20;;;;;;5071826;28;20266;-55
2023/06/11 05:15:53;;;;;;;7.90;6.03;;;21.60;35.40;;;;;;5072274;28;20268;-55
2023/06/11 05:18:19;;;;;;;7.00;5.82;;;21.70;35.00;;;;;;5075929;28;20196;-56
2023/06/11 05:20:45;;;;;;;6.80;5.80;;;21.80;34.00;;;;;;5075362;28;20271;-54
2023/06/11 05:23:11;;;;;;;7.75;6.05;;;21.90;35.00;;;;;;5076033;28;20425;-54
2023/06/11 05:25:46;;;;;;;7.97;6.73;;;22.00;34.50;;;;;;5075568;28;20267;-53
2023/06/11 05:28:12;;;;;;;7.33;6.07;;;21.90;33.50;;;;;;5075550;28;20422;-54
2023/06/11 05:30:39;;;;;;;7.00;6.20;;;22.00;32.80;;;;;;5074762;28;20437;-53
2023/06/11 05:33:06;;;;;;;6.60;6.00;;;22.00;33.00;;;;;;5074320;28;20471;-56
2023/06/11 05:35:32;;;;;;;7.63;6.55;;;22.10;33.40;;;;;;5075304;28;20208;-53
2023/06/11 05:37:59;;;;;;;5.40;4.90;;;22.10;33.00;;;;;;5074625;28;20201;-55
2023/06/11 05:40:24;;;;;;;6.18;5.28;;;22.20;33.40;;;;;;5075082;28;20572;-55
2023/06/11 05:42:50;;;;;;;6.93;5.90;;;22.30;33.90;;;;;;5075251;28;20179;-54
2023/06/11 05:45:16;;;;;;;9.47;5.93;;;22.40;33.30;;;;;;5075237;28;20183;-56
2023/06/11 05:47:42;;;;;;;8.20;6.97;;;22.60;33.50;;;;;;5075309;28;20193;-54
2023/06/11 05:50:08;;;;;;;6.00;4.80;;;22.70;33.10;;;;;;5074452;28;20223;-54
2023/06/11 05:52:34;;;;;;;7.97;5.80;;;22.80;32.30;;;;;;5075002;28;20194;-55
2023/06/11 05:54:59;;;;;;;6.53;5.57;;;22.90;32.50;;;;;;5075056;28;20489;-56
2023/06/11 05:57:25;;;;;;;6.27;5.67;;;23.00;32.20;;;;;;5074887;28;20208;-54
2023/06/11 05:59:51;;;;;;;6.13;4.60;;;23.10;32.40;;;;;;5074875;28;20169;-52
2023/06/11 06:02:17;;;;;;;6.20;5.20;;;23.20;32.70;;;;;;5074713;28;20415;-56
2023/06/11 06:04:46;;;;;;;12.43;6.00;;;23.30;32.00;;;;;;5075033;28;20950;-57
2023/06/11 06:07:12;;;;;;;6.83;6.13;;;23.30;31.50;;;;;;5074864;28;20830;-54
2023/06/11 06:09:38;;;;;;;5.47;4.97;;;23.30;31.30;;;;;;5074616;28;20899;-54
2023/06/11 06:12:05;;;;;;;6.30;4.97;;;23.30;31.80;;;;;;5074581;28;20185;-56
2023/06/11 06:14:31;;;;;;;6.23;4.83;;;23.40;31.10;;;;;;5074504;28;20899;-55
2023/06/11 06:16:57;;;;;;;7.03;5.57;;;23.50;31.50;;;;;;5074480;28;20462;-55
2023/06/11 06:19:23;;;;;;;7.90;5.10;;;23.60;30.80;;;;;;5074642;28;20551;-56
2023/06/11 06:21:49;;;;;;;6.53;5.93;;;23.70;30.70;;;;;;5074651;28;20399;-55
2023/06/11 06:24:15;;;;;;;8.63;5.50;;;23.80;30.90;;;;;;5074497;28;20545;-56
2023/06/11 06:26:40;;;;;;;7.60;4.93;;;23.90;31.20;;;;;;5074055;28;20207;-54
2023/06/11 06:29:13;;;;;;;7.23;4.67;;;24.00;30.90;;;;;;5070092;28;21007;-54
2023/06/11 06:31:42;;;;;;;5.57;5.00;;;24.20;31.40;;;;;;5069184;28;20415;-58
2023/06/11 06:34:08;;;;;;;12.43;5.50;;;24.30;30.10;;;;;;5074363;28;20907;-55
2023/06/11 06:36:35;;;;;;;5.73;4.53;;;24.30;30.00;;;;;;5074167;28;20458;-53
2023/06/11 06:39:01;;;;;;;6.93;5.47;;;24.40;30.20;;;;;;5074134;28;20661;-53
2023/06/11 06:41:27;;;;;;;5.57;5.07;;;24.40;29.40;;;;;;5074012;28;20505;-56
2023/06/11 06:43:53;;;;;;;7.07;5.43;;;24.40;30.00;;;;;;5074073;28;20808;-54
2023/06/11 06:46:19;;;;;;;5.40;4.90;;;24.50;30.40;;;;;;5074095;28;20267;-54
2023/06/11 06:48:45;;;;;;;6.40;4.40;;;24.60;30.10;;;;;;5074115;28;20471;-54
2023/06/11 06:51:11;;;;;;;7.97;5.50;;;24.70;29.70;;;;;;5073781;28;20511;-54
2023/06/11 06:53:36;;;;;;;9.23;5.47;;;24.80;28.90;;;;;;5066780;28;20426;-53
2023/06/11 06:56:05;;;;;;;7.43;5.13;;;24.80;28.70;;;;;;5073786;28;20688;-55
2023/06/11 06:58:32;;;;;;;5.30;4.70;;;24.80;29.20;;;;;;5073757;28;20184;-58
2023/06/11 07:00:58;;;;;;;5.50;4.83;;;24.80;29.20;;;;;;5073797;28;20407;-54
2023/06/11 07:03:24;;;;;;;8.70;5.17;;;24.80;29.00;;;;;;5073848;28;20421;-54
2023/06/11 07:05:50;;;;;;;6.63;4.70;;;24.90;29.50;;;;;;5073809;28;20418;-56
2023/06/11 07:08:16;;;;;;;5.60;4.93;;;25.00;29.50;;;;;;5065900;28;20806;-53
2023/06/11 07:10:48;;;;;;;7.30;5.00;;;25.10;29.80;;;;;;5073258;28;20911;-55
2023/06/11 07:13:15;;;;;;;6.37;4.50;;;25.30;29.00;;;;;;5073660;28;20192;-57
2023/06/11 07:15:41;;;;;;;6.43;4.90;;;25.30;29.60;;;;;;5073596;28;20533;-54
2023/06/11 07:18:06;;;;;;;7.00;4.50;;;25.40;29.60;;;;;;5072250;28;20524;-54
2023/06/11 07:20:32;;;;;;;6.40;5.80;;;25.60;30.20;;;;;;5073278;28;20429;-58
2023/06/11 07:23:01;;;;;;;10.47;5.43;;;25.80;30.30;;;;;;5073518;28;20230;-54
2023/06/11 07:25:28;;;;;;;8.87;6.07;;;25.90;29.30;;;;;;5073312;28;20410;-56
2023/06/11 07:28:04;;;;;;;6.73;5.60;;;26.10;28.60;;;;;;5073463;28;20418;-53
2023/06/11 07:30:31;;;;;;;7.37;5.13;;;26.20;29.20;;;;;;5073263;28;20414;-53
2023/06/11 07:32:57;;;;;;;5.67;4.80;;;26.20;28.20;;;;;;5073214;28;20403;-58
2023/06/11 07:35:25;;;;;;;5.50;4.93;;;26.30;28.40;;;;;;5073109;28;20410;-54
2023/06/11 07:37:51;;;;;;;7.50;5.53;;;26.30;27.80;;;;;;5072890;28;20431;-57
2023/06/11 07:40:17;;;;;;;6.33;5.00;;;26.30;28.00;;;;;;5072677;28;20442;-55
2023/06/11 07:42:44;;;;;;;6.53;5.20;;;26.30;28.20;;;;;;5073326;28;20407;-54
2023/06/11 07:45:10;;;;;;;8.63;5.13;;;26.40;28.00;;;;;;5073117;28;20824;-56
2023/06/11 07:47:36;;;;;;;9.27;6.13;;;26.40;28.80;;;;;;5072854;28;20500;-53
2023/06/11 07:50:03;;;;;;;5.33;4.83;;;26.50;28.80;;;;;;5072737;28;20418;-53
2023/06/11 07:52:29;;;;;;;8.53;4.90;;;26.70;28.40;;;;;;5072918;28;20518;-56
2023/06/11 07:54:54;;;;;;;6.93;5.20;;;26.70;27.50;;;;;;5072838;28;20506;-54
2023/06/11 07:57:20;;;;;;;7.47;5.07;;;26.70;27.30;;;;;;5072812;28;20234;-55
2023/06/11 07:59:46;;;;;;;6.73;5.50;;;26.80;28.00;;;;;;5072401;28;20395;-54
2023/06/11 08:02:12;;;;;;;6.80;5.73;;;26.80;28.10;;;;;;5072640;28;20633;-54
2023/06/11 08:04:38;;;;;;;5.80;5.20;;;26.90;27.90;;;;;;5072581;28;20706;-56
2023/06/11 08:07:04;;;;;;;7.10;5.53;;;27.00;29.60;;;;;;5072477;28;20193;-54
2023/06/11 08:09:37;;;;;;;7.00;5.23;;;27.20;30.00;;;;;;5072328;28;20407;-56
2023/06/11 08:12:04;;;;;;;16.03;6.57;;;27.40;28.30;;;;;;5072445;28;20457;-56
2023/06/11 08:14:30;;;;;;;8.57;5.40;;;27.50;27.60;;;;;;5072356;28;20460;-54
2023/06/11 08:16:56;;;;;;;6.37;5.13;;;27.50;28.50;;;;;;5072486;28;20459;-56
2023/06/11 08:19:23;;;;;;;6.40;5.80;;;27.60;28.20;;;;;;5072070;28;20776;-56
2023/06/11 08:21:48;;;;;;;6.07;5.47;;;27.70;27.60;;;;;;5061871;28;20415;-56
2023/06/11 08:24:16;;;;;;;8.40;5.63;;;27.80;27.80;;;;;;5052366;28;20165;-54
2023/06/11 08:26:42;;;;;;;6.00;4.50;;;27.90;27.10;;;;;;5051984;28;20181;-54
2023/06/11 08:29:08;;;;;;;5.67;5.07;;;28.00;29.20;;;;;;5052198;28;20474;-56
2023/06/11 08:31:34;;;;;;;7.80;5.53;;;28.20;28.40;;;;;;5052486;28;20423;-53
2023/06/11 08:34:00;;;;;;;6.33;5.80;;;28.30;27.50;;;;;;5052234;28;20630;-55
2023/06/11 08:36:28;;;;;;;6.07;5.53;;;28.40;28.50;;;;;;5052113;28;20197;-54
2023/06/11 08:38:54;;;;;;;7.63;6.37;;;28.50;29.00;;;;;;5052091;28;20224;-56
2023/06/11 08:41:20;;;;;;;6.57;5.80;;;28.70;27.80;;;;;;5051909;28;20458;-54
2023/06/11 08:43:46;;;;;;;6.20;5.27;;;28.80;28.00;;;;;;5051996;28;20238;-56
2023/06/11 08:46:15;;;;;;;7.83;6.60;;;28.90;27.10;;;;;;5051895;28;20407;-54
2023/06/11 08:48:43;;;;;;;6.40;5.37;;;28.90;28.10;;;;;;5051702;28;20999;-56
2023/06/11 08:51:10;;;;;;;7.83;5.67;;;29.00;27.40;;;;;;5050815;28;20403;-53
2023/06/11 08:53:37;;;;;;;7.23;5.37;;;29.00;27.30;;;;;;5052080;28;20471;-56
2023/06/11 08:56:05;;;;;;;7.60;5.10;;;29.10;28.10;;;;;;5051867;28;20457;-53
2023/06/11 08:58:33;;;;;;;6.10;5.60;;;29.20;27.00;;;;;;5051854;28;20481;-53
2023/06/11 09:01:01;;;;;;;7.80;6.10;;;29.30;26.90;;;;;;5051452;28;20423;-57
2023/06/11 09:03:27;;;;;;;6.37;5.77;;;29.50;27.10;;;;;;5051818;28;20415;-56
2023/06/11 09:05:53;;;;;;;6.50;5.33;;;29.50;27.40;;;;;;5051988;28;20416;-54
2023/06/11 09:08:19;;;;;;;6.93;6.23;;;29.60;25.00;;;;;;5051807;28;20885;-57
2023/06/11 09:10:49;;;;;;;5.87;5.23;;;29.50;24.60;;;;;;5051584;28;20424;-55
2023/06/11 09:13:16;;;;;;;5.70;4.90;;;29.50;24.30;;;;;;5051838;28;20196;-53
2023/06/11 09:15:53;;;;;;;5.47;4.97;;;29.40;25.10;;;;;;5050533;28;20463;-56
2023/06/11 09:18:24;;;;;;;8.53;5.17;;;29.50;26.00;;;;;;5051617;28;20439;-55
2023/06/11 09:21:00;;;;;;;6.10;5.50;;;29.60;25.80;;;;;;5059641;28;20795;-56
2023/06/11 09:23:30;;;;;;;9.50;5.17;;;29.50;23.20;;;;;;5072086;28;20489;-55
2023/06/11 09:25:57;;;;;;;5.90;5.30;;;29.50;22.70;;;;;;5071676;28;20411;-54
2023/06/11 09:28:33;;;;;;;5.67;5.10;;;29.50;24.40;;;;;;5071843;28;20753;-56
2023/06/11 09:31:01;;;;;;;8.67;5.60;;;29.40;23.30;;;;;;5071630;28;20461;-56
2023/06/11 09:33:31;;;;;;;6.17;5.60;;;29.30;22.10;;;;;;5071841;28;20406;-55
2023/06/11 09:36:00;;;;;;;6.73;5.50;;;29.30;23.20;;;;;;5071741;28;20457;-55
2023/06/11 09:38:26;;;;;;;5.60;5.07;;;29.40;23.00;;;;;;5070206;28;20962;-55
2023/06/11 09:40:55;;;;;;;6.43;5.63;;;29.50;24.20;;;;;;5063179;28;20930;-57
2023/06/11 09:43:22;;;;;;;5.90;5.33;;;29.60;22.70;;;;;;5071590;28;20770;-54
2023/06/11 09:45:53;;;;;;;7.63;5.27;;;29.70;21.00;;;;;;5071686;28;20437;-54
2023/06/11 09:48:22;;;;;;;6.30;5.60;;;29.80;22.20;;;;;;5071572;28;20457;-56
2023/06/11 09:50:49;;;;;;;6.77;5.60;;;29.80;22.90;;;;;;5071380;28;20476;-54
2023/06/11 09:53:17;;;;;;;9.57;5.93;;;29.90;22.20;;;;;;5071326;28;20514;-56
2023/06/11 09:55:43;;;;;;;5.60;4.93;;;29.90;22.00;;;;;;5071024;28;20469;-57
2023/06/11 09:58:10;;;;;;;6.00;5.40;;;30.00;22.70;;;;;;5071432;28;20458;-53
2023/06/11 10:00:36;;;;;;;8.40;5.90;;;29.90;22.90;;;;;;5071242;28;21099;-56
2023/06/11 10:03:04;;;;;;;6.13;5.43;;;30.00;24.00;;;;;;5072801;28;20410;-56
2023/06/11 10:05:30;;;;;;;7.83;5.63;;;30.10;23.20;;;;;;5075110;28;20426;-55
2023/06/11 10:08:03;;;;;;;6.10;5.50;;;30.10;24.50;;;;;;5075164;28;20470;-57
2023/06/11 10:10:33;;;;;;;8.53;5.97;;;30.10;23.60;;;;;;5074852;28;20407;-56
2023/06/11 10:13:00;;;;;;;6.93;5.70;;;30.10;24.10;;;;;;5074873;28;20480;-54
2023/06/11 10:15:26;;;;;;;8.00;6.23;;;30.00;25.10;;;;;;5075008;28;20403;-56
2023/06/11 10:17:53;;;;;;;6.23;5.67;;;30.00;24.70;;;;;;5074934;28;20435;-56
2023/06/11 10:20:25;;;;;;;8.70;6.20;;;30.00;25.40;;;;;;5074524;28;20818;-54
2023/06/11 10:23:01;;;;;;;6.60;6.00;;;30.00;25.80;;;;;;5075004;28;20770;-54
2023/06/11 10:25:33;;;;;;;6.23;5.37;;;30.10;25.00;;;;;;5074838;28;20879;-54
2023/06/11 10:27:59;;;;;;;6.07;5.53;;;30.10;23.80;;;;;;5074635;28;20439;-54
2023/06/11 10:30:24;;;;;;;6.27;5.43;;;30.00;23.90;;;;;;5074366;28;20434;-54
2023/06/11 10:32:50;;;;;;;6.13;5.53;;;30.50;25.10;;;;;;5074613;28;20407;-57
2023/06/11 10:35:32;;;;;;;7.53;5.57;;;29.80;24.80;;;;;;5074670;28;20214;-56
2023/06/11 10:38:05;;;;;;;8.40;5.97;;;29.90;25.00;;;;;;5074396;28;20447;-55
2023/06/11 10:40:35;;;;;;;6.07;5.33;;;29.80;25.20;;;;;;5074463;28;20490;-55
2023/06/11 10:43:05;;;;;;;5.93;5.40;;;29.80;25.70;;;;;;5074402;28;20494;-54
2023/06/11 10:45:38;;;;;;;7.17;5.73;;;29.60;25.10;;;;;;5074850;28;20415;-56
2023/06/11 10:48:05;;;;;;;6.77;6.17;;;29.70;25.50;;;;;;5074205;28;20946;-54
2023/06/11 10:50:31;;;;;;;11.43;6.03;;;29.70;25.90;;;;;;5074254;28;20978;-54
2023/06/11 10:53:01;;;;;;;6.57;5.90;;;29.80;25.80;;;;;;5074403;28;20434;-56
2023/06/11 10:55:29;;;;;;;5.97;5.37;;;29.90;24.70;;;;;;5074258;28;20403;-55
2023/06/11 10:57:59;;;;;;;9.33;5.17;;;30.10;24.10;;;;;;5074076;28;20521;-55
2023/06/11 11:00:28;;;;;;;5.67;5.17;;;30.10;25.10;;;;;;5073924;28;20453;-57
2023/06/11 11:02:57;;;;;;;6.27;5.67;;;30.10;24.90;;;;;;5074417;28;20484;-54
2023/06/11 11:05:23;;;;;;;6.17;5.57;;;30.10;24.60;;;;;;5073878;28;20438;-54
2023/06/11 11:07:49;;;;;;;7.07;6.37;;;29.90;24.20;;;;;;5074039;28;20923;-57
2023/06/11 11:10:19;;;;;;;6.90;5.17;;;29.90;24.80;;;;;;5073710;28;20464;-58
2023/06/11 11:12:46;;;;;;;7.70;5.90;;;30.10;25.30;;;;;;5072535;28;20192;-57
2023/06/11 11:15:13;;;;;;;8.33;5.50;;;30.20;24.40;;;;;;5072961;28;20794;-56
2023/06/11 11:17:40;;;;;;;5.57;5.13;;;30.10;24.50;;;;;;5073452;28;21023;-59
2023/06/11 11:20:17;;;;;;;8.23;5.20;;;30.30;25.00;;;;;;5073740;28;20412;-56
2023/06/11 11:22:52;;;;;;;6.37;5.70;;;30.40;24.40;;;;;;5073557;28;20418;-57
2023/06/11 11:25:24;;;;;;;5.83;5.33;;;30.50;23.30;;;;;;5074139;28;20766;-59
2023/06/11 11:27:50;;;;;;;5.93;5.33;;;30.50;24.90;;;;;;5073304;28;20525;-56
2023/06/11 11:30:20;;;;;;;5.70;5.20;;;30.50;23.10;;;;;;5068428;28;20561;-59
2023/06/11 11:32:46;;;;;;;8.30;5.50;;;30.50;22.20;;;;;;5073452;28;20541;-58
2023/06/11 11:35:14;;;;;;;8.23;4.83;;;30.50;24.60;;;;;;5073508;28;20427;-57
2023/06/11 11:37:40;;;;;;;6.07;5.47;;;30.60;21.50;;;;;;5073292;28;20486;-58
2023/06/11 11:40:07;;;;;;;5.33;4.83;;;30.60;21.20;;;;;;5072976;28;20407;-56
2023/06/11 11:42:50;;;;;;;5.10;4.70;;;30.70;23.20;;;;;;5073542;28;20409;-58
2023/06/11 11:45:20;;;;;;;5.70;5.10;;;30.90;22.70;;;;;;5073726;28;20403;-56
2023/06/11 11:47:51;;;;;;;7.50;5.57;;;30.90;22.00;;;;;;5073175;28;20989;-56
2023/06/11 11:50:30;;;;;;;7.03;5.90;;;30.90;21.80;;;;;;5073319;28;20982;-59
2023/06/11 11:53:05;;;;;;;5.80;5.27;;;31.00;22.80;;;;;;5070565;28;20418;-58
2023/06/11 11:55:36;;;;;;;5.17;4.77;;;31.20;20.30;;;;;;5073021;28;20456;-58
2023/06/11 11:58:09;;;;;;;5.70;5.10;;;31.20;21.30;;;;;;5073050;28;20431;-58
2023/06/11 12:00:40;;;;;;;6.90;6.00;;;31.20;22.70;;;;;;5073075;28;20895;-56
2023/06/11 12:03:08;;;;;;;7.33;5.83;;;31.30;21.30;;;;;;5072852;28;20914;-57
2023/06/11 12:05:35;;;;;;;6.90;6.23;;;31.30;20.50;;;;;;5072691;28;20410;-54
2023/06/11 12:08:01;;;;;;;6.37;5.70;;;31.30;21.00;;;;;;5071864;28;20458;-57
2023/06/11 12:10:27;;;;;;;5.87;5.37;;;31.30;22.00;;;;;;5072408;28;20407;-55
2023/06/11 12:12:54;;;;;;;6.60;5.80;;;31.30;21.00;;;;;;5071336;28;20442;-58
2023/06/11 12:15:20;;;;;;;5.80;5.23;;;31.30;21.30;;;;;;5072711;28;20173;-56
2023/06/11 12:17:45;;;;;;;8.13;5.40;;;31.30;21.40;;;;;;5072475;28;20450;-54
2023/06/11 12:20:12;;;;;;;7.53;6.00;;;31.40;20.40;;;;;;5072422;28;20165;-59
2023/06/11 12:22:38;;;;;;;5.67;5.17;;;31.50;20.60;;;;;;5072472;28;20601;-55
2023/06/11 12:25:05;;;;;;;9.43;5.73;;;31.60;22.30;;;;;;5072259;28;20409;-55
2023/06/11 12:27:31;;;;;;;6.90;6.20;;;31.80;21.40;;;;;;5072238;28;20441;-56
2023/06/11 12:29:57;;;;;;;5.93;5.33;;;31.90;21.30;;;;;;5072390;28;20410;-55
2023/06/11 12:32:24;;;;;;;6.60;6.00;;;32.00;20.20;;;;;;5071143;28;21067;-55
2023/06/11 12:34:51;;;;;;;6.20;5.60;;;31.80;19.40;;;;;;5072479;28;20414;-57
2023/06/11 12:37:17;;;;;;;6.10;5.60;;;31.50;19.10;;;;;;5072176;28;20843;-57
2023/06/11 12:39:43;;;;;;;6.33;5.83;;;31.40;19.60;;;;;;5072090;28;20403;-54
2023/06/11 12:42:16;;;;;;;6.53;5.93;;;31.30;20.00;;;;;;5072164;28;20410;-56
2023/06/11 12:44:43;;;;;;;5.70;5.20;;;31.40;21.20;;;;;;5072258;28;20473;-58
2023/06/11 12:47:09;;;;;;;5.40;5.00;;;31.50;19.70;;;;;;5072283;28;20433;-55